Time;durP1;ratioP1;P1;durP2;ratioP2;P2;SDS_P1;SDS_P2;PMS_P1;PMS_P2;Temp;Humidity;BMP_temperature;BMP_pressure;BME280_temperature;BME280_humidity;BME280_pressure;Samples;Min_cycle;Max_cycle;Signal;HPM_P1;HPM_P2
2022/06/04 00:00:37;;;;;;;3.13;2.63;;;22.90;50.40;24.60;100797.00;;;;4988085;28;20172;-48
2022/06/04 00:03:03;;;;;;;2.93;2.57;;;22.90;50.70;24.60;100806.00;;;;4988432;28;20658;-47
2022/06/04 00:05:33;;;;;;;3.33;2.77;;;22.90;50.70;24.60;100803.00;;;;4988011;28;20256;-48
2022/06/04 00:08:00;;;;;;;3.10;2.90;;;22.90;50.70;24.60;100798.00;;;;4988402;28;20183;-49
2022/06/04 00:16:02;;;;;;;4.43;2.90;;;22.80;50.80;24.50;100803.00;;;;4987742;28;20166;-48
2022/06/04 00:18:28;;;;;;;3.30;3.00;;;22.80;50.70;24.50;100789.00;;;;4987648;28;20176;-48
2022/06/04 00:20:53;;;;;;;3.07;2.87;;;22.70;50.80;24.40;100797.00;;;;4987502;28;20212;-48
2022/06/04 00:23:20;;;;;;;3.20;2.93;;;22.70;50.90;24.40;100789.00;;;;4987932;28;20282;-48
2022/06/04 00:25:51;;;;;;;3.30;3.00;;;22.70;51.00;24.40;100804.00;;;;4986830;28;20662;-49
2022/06/04 00:28:20;;;;;;;4.00;3.10;;;22.70;51.20;24.40;100805.00;;;;4986008;28;20229;-49
2022/06/04 00:30:46;;;;;;;3.47;3.17;;;22.70;51.20;24.40;100797.00;;;;4987676;28;20197;-48
2022/06/04 00:33:12;;;;;;;3.77;3.40;;;22.70;51.20;24.30;100717.00;;;;4987710;28;20181;-47
2022/06/04 00:35:38;;;;;;;3.40;3.00;;;22.70;51.20;24.30;100788.00;;;;4994344;28;20195;-48
2022/06/04 00:38:04;;;;;;;3.37;3.00;;;22.60;51.20;24.30;100791.00;;;;4996986;28;20642;-48
2022/06/04 00:40:45;;;;;;;3.37;3.00;;;22.60;51.30;24.30;100807.00;;;;4987656;28;20525;-49
2022/06/04 00:43:11;;;;;;;3.27;2.97;;;22.60;51.30;24.20;100811.00;;;;4971378;28;20272;-49
2022/06/04 00:45:36;;;;;;;4.43;3.20;;;22.60;51.20;24.20;100805.00;;;;4991292;28;20181;-48
2022/06/04 00:48:07;;;;;;;3.27;3.00;;;22.60;51.20;24.20;100798.00;;;;4991560;28;20234;-48
2022/06/04 00:50:37;;;;;;;3.37;2.97;;;22.50;51.20;24.20;100797.00;;;;4989884;28;20230;-48
2022/06/04 00:53:06;;;;;;;3.20;3.00;;;22.60;51.30;24.20;100805.00;;;;4973710;28;20191;-49
2022/06/04 00:56:17;;;;;;;3.47;3.00;;;22.50;51.20;24.20;100814.00;;;;4973936;28;20184;-48
2022/06/04 00:59:26;;;;;;;3.30;3.00;;;22.50;51.30;24.10;100806.00;;;;4974722;28;20279;-48
2022/06/04 01:02:29;;;;;;;3.30;3.00;;;22.50;51.30;24.10;100815.00;;;;4977407;28;20215;-48
2022/06/04 01:05:34;;;;;;;2.90;2.70;;;22.40;51.40;24.10;100823.00;;;;4991072;28;20176;-48
2022/06/04 01:08:44;;;;;;;3.50;3.20;;;22.40;51.40;24.10;100820.00;;;;4990901;28;20200;-48
2022/06/04 01:12:11;;;;;;;3.10;2.90;;;22.50;51.50;24.00;100843.00;;;;4989699;28;20242;-49
2022/06/04 01:15:04;;;;;;;6.50;3.20;;;22.50;51.40;24.00;100854.00;;;;4981222;28;20408;-49
2022/06/04 01:17:57;;;;;;;2.90;2.60;;;22.50;51.30;24.00;100861.00;;;;4990619;28;20559;-49
2022/06/04 01:20:51;;;;;;;3.67;3.17;;;22.50;51.50;24.00;100865.00;;;;4990513;28;20167;-48
2022/06/04 01:23:48;;;;;;;3.87;3.00;;;22.60;51.30;24.00;100876.00;;;;4975235;28;20207;-49
2022/06/04 01:26:54;;;;;;;3.23;2.97;;;22.60;51.20;24.00;100875.00;;;;4989941;28;20622;-49
2022/06/04 01:29:32;;;;;;;3.53;3.10;;;22.50;51.10;24.00;100867.00;;;;4990397;28;20596;-50
2022/06/04 01:32:25;;;;;;;3.20;2.90;;;22.60;51.50;24.00;100859.00;;;;4975316;28;20202;-49
2022/06/04 01:34:59;;;;;;;3.60;3.30;;;22.60;51.30;24.00;100874.00;;;;4993638;28;20183;-48
2022/06/04 01:37:42;;;;;;;3.17;2.97;;;22.60;51.10;24.10;100864.00;;;;4979013;28;20578;-49
2022/06/04 01:42:59;;;;;;;3.60;3.10;;;22.70;51.30;24.00;100881.00;;;;4991618;28;20243;-49
2022/06/04 01:45:25;;;;;;;3.00;2.80;;;22.70;51.20;24.10;100884.00;;;;4993038;28;20192;-49
2022/06/04 01:47:51;;;;;;;3.90;2.90;;;22.70;51.20;24.10;100878.00;;;;4973692;28;20172;-48
2022/06/04 01:50:20;;;;;;;3.43;2.90;;;22.70;51.30;24.00;100877.00;;;;4973440;28;20180;-50
2022/06/04 01:52:46;;;;;;;3.23;3.00;;;22.60;51.20;24.00;100881.00;;;;4973606;28;20184;-49
2022/06/04 01:55:27;;;;;;;2.70;2.50;;;22.60;51.20;24.00;100877.00;;;;4988364;28;20573;-49
2022/06/04 01:58:02;;;;;;;3.60;2.90;;;22.60;51.30;24.00;100875.00;;;;4974154;28;20168;-49
2022/06/04 02:00:37;;;;;;;2.90;2.70;;;22.60;51.20;24.00;100877.00;;;;4974006;28;20200;-49
2022/06/04 02:03:11;;;;;;;3.20;2.90;;;22.60;51.10;24.00;100871.00;;;;4973986;28;20199;-48
2022/06/04 02:05:59;;;;;;;3.30;3.00;;;22.60;51.00;24.00;100876.00;;;;4989157;28;20524;-48
2022/06/04 02:08:32;;;;;;;3.33;3.03;;;22.60;51.10;24.00;100887.00;;;;4988813;28;20263;-48
2022/06/04 02:11:12;;;;;;;3.70;3.33;;;22.60;51.10;24.00;100886.00;;;;4972579;28;20192;-48
2022/06/04 02:13:38;;;;;;;4.37;2.97;;;22.60;51.10;24.00;100887.00;;;;4972993;28;20180;-48
2022/06/04 02:16:26;;;;;;;2.93;2.73;;;22.60;51.00;24.00;100891.00;;;;4999275;28;20571;-49
2022/06/04 02:18:52;;;;;;;3.13;2.90;;;22.60;51.30;24.00;100883.00;;;;4974081;28;20157;-49
2022/06/04 02:21:18;;;;;;;3.20;2.90;;;22.60;50.90;24.00;100869.00;;;;4988065;28;20219;-48
2022/06/04 02:23:45;;;;;;;4.07;2.90;;;22.60;51.20;24.00;100864.00;;;;4990158;28;20204;-50
2022/06/04 02:26:11;;;;;;;3.13;2.93;;;22.50;50.80;24.00;100875.00;;;;4972530;28;20177;-50
2022/06/04 02:28:37;;;;;;;3.10;2.90;;;22.50;51.20;24.00;100858.00;;;;4987915;28;20183;-51
2022/06/04 02:31:44;;;;;;;3.10;2.77;;;22.50;51.00;24.00;100868.00;;;;4989362;28;20216;-48
2022/06/04 02:34:32;;;;;;;2.93;2.73;;;22.50;50.90;23.90;100871.00;;;;4988470;28;20219;-49
2022/06/04 02:37:51;;;;;;;2.70;2.50;;;22.50;51.10;23.90;100868.00;;;;4988257;28;20654;-50
2022/06/04 02:40:21;;;;;;;3.63;2.90;;;22.60;51.10;23.90;100860.00;;;;4986151;28;20295;-49
2022/06/04 02:43:13;;;;;;;3.03;2.73;;;22.60;50.70;23.90;100853.00;;;;4973227;28;20196;-49
2022/06/04 02:45:41;;;;;;;3.20;3.00;;;22.50;50.50;23.90;100847.00;;;;4973357;28;20250;-48
2022/06/04 02:48:19;;;;;;;3.53;2.93;;;22.50;50.50;23.90;100853.00;;;;4971997;28;20183;-48
2022/06/04 02:50:49;;;;;;;3.27;2.83;;;22.50;50.80;23.90;100856.00;;;;4988035;28;20200;-49
2022/06/04 02:53:15;;;;;;;4.30;3.03;;;22.50;51.00;23.80;100836.00;;;;4972057;28;20685;-49
2022/06/04 02:55:50;;;;;;;4.27;3.07;;;22.40;50.60;23.80;100845.00;;;;4987730;28;20259;-48
2022/06/04 02:58:17;;;;;;;3.13;2.90;;;22.50;50.80;23.80;100848.00;;;;4972279;28;20591;-48
2022/06/04 03:00:43;;;;;;;3.10;2.90;;;22.50;50.40;23.80;100843.00;;;;4971846;28;20563;-48
2022/06/04 03:03:13;;;;;;;3.77;2.93;;;22.40;50.60;23.80;100832.00;;;;4987722;28;20208;-49
2022/06/04 03:05:50;;;;;;;3.30;3.00;;;22.40;50.40;23.80;100831.00;;;;4987745;28;20671;-49
2022/06/04 03:08:16;;;;;;;3.80;3.00;;;22.40;50.80;23.80;100827.00;;;;4988399;28;20163;-48
2022/06/04 03:10:42;;;;;;;4.53;2.93;;;22.40;50.60;23.80;100820.00;;;;5001006;28;20192;-49
2022/06/04 03:13:08;;;;;;;4.67;2.80;;;22.40;50.90;23.80;100813.00;;;;5008177;28;20179;-48
2022/06/04 03:15:34;;;;;;;5.23;3.00;;;22.30;50.60;23.70;100816.00;;;;5002177;28;20236;-48
2022/06/04 03:17:59;;;;;;;4.33;3.10;;;22.20;50.40;23.70;100815.00;;;;5003974;28;20207;-49
2022/06/04 03:20:26;;;;;;;3.53;3.20;;;22.10;50.70;23.60;100823.00;;;;4995131;28;20172;-49
2022/06/04 03:22:52;;;;;;;3.50;3.20;;;22.10;51.40;23.60;100830.00;;;;4988992;28;20266;-50
2022/06/04 03:25:19;;;;;;;3.37;3.00;;;22.00;51.40;23.60;100817.00;;;;4986437;28;20511;-49
2022/06/04 03:27:45;;;;;;;4.40;3.27;;;21.90;51.30;23.50;100810.00;;;;4987977;28;20262;-49
2022/06/04 03:30:11;;;;;;;3.43;3.13;;;21.80;51.40;23.50;100813.00;;;;5000054;28;20184;-48
2022/06/04 03:32:37;;;;;;;3.40;3.07;;;21.70;51.30;23.40;100822.00;;;;5002378;28;20223;-48
2022/06/04 03:35:03;;;;;;;3.67;3.20;;;21.70;51.40;23.40;100814.00;;;;4986955;28;20215;-48
2022/06/04 03:37:29;;;;;;;3.90;3.50;;;21.60;51.40;23.30;100803.00;;;;4991426;28;20183;-48
2022/06/04 03:39:55;;;;;;;3.23;2.93;;;21.50;51.40;23.30;100819.00;;;;4990082;28;20594;-48
2022/06/04 03:42:21;;;;;;;3.20;2.90;;;21.50;51.40;23.30;100829.00;;;;4990894;28;20214;-48
2022/06/04 03:44:47;;;;;;;3.47;2.97;;;21.50;51.40;23.30;100831.00;;;;4996964;28;20479;-48
2022/06/04 03:47:16;;;;;;;4.07;3.60;;;21.60;51.50;23.20;100835.00;;;;4989506;28;20176;-49
2022/06/04 03:49:43;;;;;;;3.23;2.97;;;21.50;51.40;23.20;100844.00;;;;4988196;28;20179;-49
2022/06/04 03:52:11;;;;;;;4.50;3.20;;;21.50;51.40;23.20;100835.00;;;;4987838;28;20204;-48
2022/06/04 03:54:52;;;;;;;3.40;3.10;;;21.50;51.40;23.10;100848.00;;;;4974813;28;20423;-48
2022/06/04 04:00:34;;;;;;;3.23;3.00;;;21.40;51.40;23.10;100868.00;;;;4987482;28;20186;-48
2022/06/04 04:03:11;;;;;;;3.47;3.17;;;21.40;51.40;23.00;100867.00;;;;4987300;28;20196;-49
2022/06/04 04:05:41;;;;;;;4.30;3.33;;;21.30;51.60;23.00;100864.00;;;;4987467;28;20156;-50
2022/06/04 04:08:08;;;;;;;4.70;3.10;;;21.30;51.60;23.00;100865.00;;;;4986864;28;20180;-48
2022/06/04 04:10:34;;;;;;;4.50;2.90;;;21.30;51.60;23.00;100853.00;;;;4970189;28;20187;-48
2022/06/04 04:12:59;;;;;;;4.20;3.10;;;21.30;51.60;22.90;100861.00;;;;4987243;28;20176;-48
2022/06/04 04:15:26;;;;;;;4.07;3.37;;;21.30;51.70;22.90;100861.00;;;;4987765;28;20621;-49
2022/06/04 04:17:52;;;;;;;4.53;3.30;;;21.20;51.90;22.90;100863.00;;;;4987304;28;20184;-48
2022/06/04 04:20:29;;;;;;;4.27;3.00;;;21.20;51.90;22.90;100865.00;;;;4990982;28;20605;-49
2022/06/04 04:22:55;;;;;;;3.37;2.97;;;21.20;51.70;22.80;100867.00;;;;4991362;28;20212;-49
2022/06/04 04:25:23;;;;;;;3.43;3.13;;;21.20;51.80;22.80;100875.00;;;;4991857;28;20184;-48
2022/06/04 04:27:49;;;;;;;3.20;3.00;;;21.30;51.90;22.80;100880.00;;;;4991049;28;20187;-49
2022/06/04 04:30:18;;;;;;;3.63;3.00;;;21.30;51.70;22.80;100876.00;;;;4991406;28;20184;-48
2022/06/04 04:32:43;;;;;;;3.07;2.80;;;21.30;51.60;22.80;100878.00;;;;4991190;28;20680;-48
2022/06/04 04:35:14;;;;;;;3.63;3.00;;;21.30;51.50;22.80;100876.00;;;;4991547;28;20199;-49
2022/06/04 04:37:42;;;;;;;3.90;2.87;;;21.40;51.40;22.80;100887.00;;;;4990874;28;20388;-49
2022/06/04 04:40:08;;;;;;;7.03;3.03;;;21.40;51.60;22.80;100886.00;;;;4991474;28;20584;-49
2022/06/04 04:42:34;;;;;;;3.50;2.80;;;21.40;51.70;22.80;100888.00;;;;4990717;28;20208;-48
2022/06/04 04:45:00;;;;;;;4.30;2.80;;;21.40;51.60;22.80;100888.00;;;;4990706;28;20667;-49
2022/06/04 04:47:26;;;;;;;5.37;3.10;;;21.40;51.40;22.60;100880.00;;;;4991032;28;20255;-49
2022/06/04 04:49:51;;;;;;;8.33;3.30;;;21.50;51.50;22.80;100880.00;;;;4990944;28;20172;-49
2022/06/04 04:52:18;;;;;;;7.63;3.07;;;21.40;51.60;22.80;100898.00;;;;4990928;28;20478;-49
2022/06/04 04:54:43;;;;;;;4.17;3.20;;;21.50;51.60;22.90;100894.00;;;;4990809;28;20637;-48
2022/06/04 04:57:09;;;;;;;5.10;2.80;;;21.60;51.50;22.80;100892.00;;;;4990692;28;20428;-49
2022/06/04 04:59:35;;;;;;;3.73;2.87;;;21.60;51.50;22.90;100897.00;;;;4990603;28;20181;-49
2022/06/04 05:02:01;;;;;;;3.57;2.77;;;21.60;51.50;22.90;100896.00;;;;4990213;28;20207;-49
2022/06/04 05:04:26;;;;;;;3.90;2.90;;;21.60;51.50;22.80;100899.00;;;;4990511;28;20176;-50
2022/06/04 05:06:52;;;;;;;3.67;2.73;;;21.60;51.50;22.80;100905.00;;;;4990878;28;20153;-48
2022/06/04 05:09:18;;;;;;;3.53;2.70;;;21.50;51.70;22.80;100908.00;;;;4990523;28;20396;-49
2022/06/04 05:11:44;;;;;;;5.93;2.90;;;21.50;51.60;22.80;100920.00;;;;4989898;28;20704;-50
2022/06/04 05:14:09;;;;;;;3.43;2.93;;;21.50;51.70;22.90;100921.00;;;;4993933;28;20177;-49
2022/06/04 05:16:37;;;;;;;3.40;3.10;;;21.60;51.90;22.90;100938.00;;;;4990737;28;20344;-49
2022/06/04 05:19:04;;;;;;;3.00;2.70;;;21.60;51.80;22.90;100935.00;;;;4989065;28;20641;-49
2022/06/04 05:21:47;;;;;;;4.03;3.10;;;21.60;51.60;22.90;100940.00;;;;4988860;28;20355;-49
2022/06/04 05:24:27;;;;;;;3.30;2.90;;;21.70;51.70;22.90;100947.00;;;;4990006;28;20192;-50
2022/06/04 05:26:54;;;;;;;3.57;3.03;;;21.70;51.70;22.80;100942.00;;;;4990432;28;20169;-50
2022/06/04 05:29:20;;;;;;;5.00;3.50;;;21.60;51.70;22.80;100953.00;;;;4988809;28;20230;-48
2022/06/04 05:31:46;;;;;;;3.30;2.60;;;21.70;51.90;22.80;100950.00;;;;4989982;28;20251;-49
2022/06/04 05:34:12;;;;;;;3.13;2.70;;;21.50;51.70;22.80;100934.00;;;;4989776;28;20176;-49
2022/06/04 05:36:38;;;;;;;2.97;2.73;;;21.50;52.00;22.80;100932.00;;;;4989944;28;20191;-49
2022/06/04 05:39:05;;;;;;;3.40;2.60;;;21.50;51.90;22.80;100946.00;;;;4989724;28;20176;-48
2022/06/04 05:41:31;;;;;;;2.80;2.60;;;21.50;51.90;22.80;100949.00;;;;4991117;28;20188;-48
2022/06/04 05:43:57;;;;;;;3.17;2.60;;;21.50;52.00;22.80;100962.00;;;;4992242;28;20239;-49
2022/06/04 05:46:23;;;;;;;3.17;2.87;;;21.40;52.10;22.70;100949.00;;;;4994676;28;20195;-48
2022/06/04 05:48:48;;;;;;;3.20;2.90;;;21.40;52.20;22.70;100959.00;;;;4991395;28;20168;-47
2022/06/04 05:51:20;;;;;;;2.97;2.73;;;21.40;52.30;22.70;100952.00;;;;4990848;28;20234;-49
2022/06/04 05:53:48;;;;;;;3.27;2.70;;;21.40;52.30;22.70;100951.00;;;;4991813;28;20673;-49
2022/06/04 05:56:24;;;;;;;3.43;2.80;;;21.40;52.20;22.70;100963.00;;;;4991396;28;20214;-49
2022/06/04 05:58:51;;;;;;;3.17;2.87;;;21.50;52.10;22.70;100970.00;;;;4989955;28;20172;-50
2022/06/04 06:01:19;;;;;;;2.70;2.50;;;21.50;52.10;22.70;100965.00;;;;4990243;28;20208;-49
2022/06/04 06:03:45;;;;;;;3.77;3.10;;;21.50;52.10;22.70;100961.00;;;;4989528;28;20208;-48
2022/06/04 06:06:19;;;;;;;3.10;2.90;;;21.50;52.10;22.70;100956.00;;;;4990067;28;20237;-48
2022/06/04 06:08:45;;;;;;;3.13;2.90;;;21.50;52.30;22.60;100967.00;;;;4990120;28;20196;-50
2022/06/04 06:11:13;;;;;;;4.17;3.00;;;21.50;52.40;22.60;100974.00;;;;4990281;28;20483;-50
2022/06/04 06:13:40;;;;;;;3.10;2.80;;;21.50;52.40;22.60;100975.00;;;;4988367;28;20234;-49
2022/06/04 06:16:07;;;;;;;2.90;2.70;;;21.50;52.40;22.60;100980.00;;;;4989831;28;20187;-50
2022/06/04 06:18:34;;;;;;;2.70;2.50;;;21.50;52.30;22.60;100990.00;;;;4989770;28;20312;-49
2022/06/04 06:21:11;;;;;;;3.90;2.90;;;21.60;52.10;22.60;100985.00;;;;4991740;28;20283;-49
2022/06/04 06:23:37;;;;;;;2.70;2.50;;;21.50;52.30;22.60;100996.00;;;;4991154;28;20204;-49
2022/06/04 06:26:06;;;;;;;2.90;2.70;;;21.50;52.40;22.60;101004.00;;;;4989604;28;20175;-49
2022/06/04 06:28:33;;;;;;;2.90;2.60;;;21.50;52.50;22.60;100994.00;;;;4985238;28;20176;-49
2022/06/04 06:30:59;;;;;;;2.83;2.53;;;21.60;52.40;22.60;100996.00;;;;4988860;28;20191;-49
2022/06/04 06:33:25;;;;;;;3.17;2.87;;;21.50;52.40;22.60;100995.00;;;;4997687;28;20551;-49
2022/06/04 06:36:05;;;;;;;3.13;2.80;;;21.50;52.80;22.60;101004.00;;;;5010219;28;20191;-49
2022/06/04 06:38:31;;;;;;;2.83;2.63;;;21.50;52.90;22.60;100992.00;;;;5003803;28;20513;-48
2022/06/04 06:40:57;;;;;;;3.00;2.70;;;21.50;52.90;22.60;101004.00;;;;4988550;28;20196;-49
2022/06/04 06:43:31;;;;;;;3.00;2.70;;;21.50;53.00;22.60;101003.00;;;;4988685;28;20336;-50
2022/06/04 06:46:04;;;;;;;3.10;2.80;;;21.40;53.10;22.60;101000.00;;;;4988302;28;20160;-48
2022/06/04 06:48:30;;;;;;;3.00;2.70;;;21.50;52.90;22.60;101006.00;;;;4987646;28;20634;-49
2022/06/04 06:50:56;;;;;;;2.60;2.40;;;21.40;52.70;22.60;101011.00;;;;4988592;28;20268;-48
2022/06/04 06:53:22;;;;;;;3.67;2.70;;;21.50;52.70;22.60;101008.00;;;;4980486;28;20617;-48
2022/06/04 06:55:47;;;;;;;2.80;2.60;;;21.50;52.90;22.60;101020.00;;;;4987795;28;20255;-48
2022/06/04 06:58:13;;;;;;;4.03;2.63;;;21.50;52.80;22.60;101029.00;;;;4788267;28;20263;-47
2022/06/04 07:00:39;;;;;;;2.70;2.50;;;21.50;52.70;22.60;101022.00;;;;4986744;28;20212;-49
2022/06/04 07:03:05;;;;;;;3.00;2.70;;;21.50;52.70;22.60;101012.00;;;;4985420;28;20231;-48
2022/06/04 07:05:31;;;;;;;3.50;2.83;;;21.50;52.90;22.60;101018.00;;;;4988342;28;20173;-48
2022/06/04 07:07:57;;;;;;;2.60;2.40;;;21.50;52.60;22.60;101014.00;;;;4990080;28;20164;-48
2022/06/04 07:10:23;;;;;;;2.80;2.60;;;21.50;53.00;22.60;101008.00;;;;4989712;28;20605;-49
2022/06/04 07:12:48;;;;;;;3.00;2.70;;;21.50;52.80;22.60;101012.00;;;;4990254;28;20184;-49
2022/06/04 07:15:14;;;;;;;2.67;2.47;;;21.50;52.80;22.60;101021.00;;;;4989396;28;20180;-49
2022/06/04 07:17:40;;;;;;;3.10;2.80;;;21.50;52.80;22.60;101019.00;;;;4989935;28;20242;-49
2022/06/04 07:20:08;;;;;;;3.07;2.80;;;21.50;53.10;22.60;101004.00;;;;4990056;28;20559;-49
2022/06/04 07:22:33;;;;;;;3.27;2.97;;;21.50;53.50;22.60;101004.00;;;;4989429;28;20745;-48
2022/06/04 07:24:59;;;;;;;3.17;2.60;;;21.50;53.70;22.60;101002.00;;;;4989764;28;20172;-48
2022/06/04 07:27:26;;;;;;;2.80;2.60;;;21.40;53.90;22.60;101012.00;;;;4989016;28;20171;-48
2022/06/04 07:29:52;;;;;;;3.07;2.77;;;21.40;53.90;22.60;101020.00;;;;4989442;28;20225;-49
2022/06/04 07:32:18;;;;;;;3.20;2.50;;;21.40;53.50;22.60;101014.00;;;;4989447;28;20205;-48
2022/06/04 07:34:44;;;;;;;2.90;2.60;;;21.40;53.50;22.60;101013.00;;;;4989397;28;20178;-48
2022/06/04 07:37:10;;;;;;;4.97;2.80;;;21.40;53.50;22.60;101006.00;;;;4988850;28;20187;-50
2022/06/04 07:39:36;;;;;;;3.90;2.70;;;21.40;53.60;22.60;101018.00;;;;4989257;28;20180;-49
2022/06/04 07:42:05;;;;;;;3.87;2.80;;;21.40;53.60;22.60;101017.00;;;;4989101;28;20199;-48
2022/06/04 07:44:31;;;;;;;2.73;2.50;;;21.40;53.90;22.60;101025.00;;;;4989424;28;20215;-49
2022/06/04 07:46:57;;;;;;;3.10;2.80;;;21.50;53.70;22.60;101020.00;;;;4988034;28;20671;-49
2022/06/04 07:49:23;;;;;;;2.80;2.60;;;21.40;53.60;22.60;101029.00;;;;4996108;28;20167;-48
2022/06/04 07:51:49;;;;;;;5.23;2.77;;;21.40;54.30;22.60;101030.00;;;;4997195;28;20250;-45
2022/06/04 07:54:14;;;;;;;5.23;2.80;;;21.50;54.10;22.60;101044.00;;;;4988622;28;20202;-45
2022/06/04 07:56:40;;;;;;;5.40;3.13;;;21.50;54.30;22.60;101044.00;;;;4989034;28;20191;-44
2022/06/04 07:59:08;;;;;;;3.00;2.80;;;21.50;54.10;22.70;101042.00;;;;4803768;28;20172;-44
2022/06/04 08:01:34;;;;;;;3.43;2.77;;;21.60;54.20;22.70;101034.00;;;;4989230;28;20203;-45
2022/06/04 08:04:00;;;;;;;4.57;2.60;;;21.60;54.10;22.70;101030.00;;;;4989203;28;20204;-45
2022/06/04 08:06:26;;;;;;;2.83;2.53;;;21.70;53.90;22.80;101040.00;;;;4989002;28;20179;-45
2022/06/04 08:08:57;;;;;;;2.70;2.50;;;21.70;53.80;22.80;101035.00;;;;4989034;28;20207;-45
2022/06/04 08:11:32;;;;;;;2.70;2.50;;;21.70;53.80;22.80;101030.00;;;;4989640;28;20416;-45
2022/06/04 08:14:21;;;;;;;2.70;2.50;;;21.70;53.80;22.80;101052.00;;;;4989450;28;20184;-44
2022/06/04 08:16:56;;;;;;;2.70;2.47;;;21.70;53.80;22.80;101046.00;;;;4969988;28;20165;-45
2022/06/04 08:19:23;;;;;;;2.70;2.50;;;21.70;53.60;22.90;101047.00;;;;4968274;28;20595;-44
2022/06/04 08:21:49;;;;;;;2.67;2.47;;;21.70;53.60;22.90;101029.00;;;;4968985;28;20208;-44
2022/06/04 08:24:15;;;;;;;3.00;2.50;;;21.70;53.60;22.90;101033.00;;;;4969803;28;20309;-44
2022/06/04 08:26:45;;;;;;;2.80;2.60;;;21.80;53.60;22.90;101029.00;;;;4973607;28;20596;-44
2022/06/04 08:29:12;;;;;;;2.60;2.40;;;21.80;53.60;22.90;101021.00;;;;4986316;28;20247;-47
2022/06/04 08:31:38;;;;;;;2.80;2.60;;;21.80;53.60;23.00;101020.00;;;;4988725;28;20180;-45
2022/06/04 08:34:03;;;;;;;2.53;2.30;;;21.80;53.50;23.00;101014.00;;;;4988674;28;20203;-44
2022/06/04 08:36:29;;;;;;;2.87;2.67;;;21.80;53.50;23.00;101019.00;;;;4988700;28;20188;-45
2022/06/04 08:38:55;;;;;;;2.80;2.60;;;21.80;53.50;23.00;101022.00;;;;4988735;28;20179;-45
2022/06/04 08:41:44;;;;;;;3.10;2.50;;;21.80;53.50;23.00;101024.00;;;;4989406;28;20563;-45
2022/06/04 08:44:16;;;;;;;2.80;2.37;;;21.80;53.50;23.00;101011.00;;;;4988610;28;20196;-45
2022/06/04 08:46:56;;;;;;;2.83;2.63;;;21.90;53.60;23.10;101010.00;;;;4987861;28;20156;-46
2022/06/04 08:49:36;;;;;;;3.07;2.40;;;21.90;53.50;23.00;101014.00;;;;4987424;28;20684;-45
2022/06/04 08:52:17;;;;;;;3.00;2.63;;;21.90;53.60;23.10;101017.00;;;;4972386;28;20195;-45
2022/06/04 08:57:43;;;;;;;4.83;2.60;;;21.90;53.70;23.10;100997.00;;;;4767031;28;22542;-44
2022/06/04 09:00:27;;;;;;;3.13;2.40;;;21.90;53.90;23.10;101006.00;;;;4968440;28;20718;-43
2022/06/04 09:03:18;;;;;;;6.47;2.90;;;21.90;54.00;23.10;101003.00;;;;4967982;28;20204;-44
2022/06/04 09:06:12;;;;;;;8.10;3.10;;;21.90;54.40;23.10;101008.00;;;;4969788;28;20184;-44
2022/06/04 09:08:59;;;;;;;6.07;2.87;;;21.90;54.60;23.10;100998.00;;;;4971203;28;20172;-45
2022/06/04 09:11:39;;;;;;;4.30;3.03;;;21.90;54.60;23.10;101001.00;;;;4971110;28;20658;-44
2022/06/04 09:14:14;;;;;;;3.87;2.60;;;21.90;54.50;23.10;101016.00;;;;4971803;28;20231;-45
2022/06/04 09:16:41;;;;;;;2.97;2.60;;;22.00;54.60;23.10;101007.00;;;;4972859;28;20180;-45
2022/06/04 09:19:15;;;;;;;4.33;2.83;;;22.00;54.40;23.20;101021.00;;;;4982600;28;20271;-44
2022/06/04 09:21:41;;;;;;;3.30;2.60;;;22.00;54.40;23.20;101015.00;;;;4990988;28;20557;-44
2022/06/04 09:24:07;;;;;;;4.30;2.73;;;22.00;54.40;23.20;101027.00;;;;4991044;28;20206;-44
2022/06/04 09:26:42;;;;;;;2.80;2.47;;;22.10;54.40;23.30;101035.00;;;;4992059;28;20625;-44
2022/06/04 09:29:25;;;;;;;3.60;2.50;;;22.10;54.40;23.30;101044.00;;;;4990991;28;20319;-45
2022/06/04 09:32:05;;;;;;;3.00;2.70;;;22.10;54.50;23.30;101042.00;;;;4990839;28;20188;-44
2022/06/04 09:34:44;;;;;;;4.33;2.60;;;22.10;54.60;23.30;101057.00;;;;4992434;28;20168;-45
2022/06/04 09:37:10;;;;;;;3.40;2.60;;;22.10;54.70;23.30;101051.00;;;;4990893;28;20196;-45
2022/06/04 09:39:45;;;;;;;2.90;2.70;;;22.10;54.60;23.30;101054.00;;;;4992509;28;20203;-44
2022/06/04 09:42:14;;;;;;;3.43;2.70;;;22.10;54.70;23.40;101061.00;;;;4992401;28;20288;-45
2022/06/04 09:44:57;;;;;;;2.70;2.50;;;22.10;54.60;23.40;101062.00;;;;4994383;28;20402;-44
2022/06/04 09:47:48;;;;;;;3.80;2.70;;;22.10;54.70;23.40;101050.00;;;;4992104;28;20253;-49
2022/06/04 09:50:24;;;;;;;3.13;2.63;;;22.10;54.80;23.40;101051.00;;;;4975028;28;20177;-44
2022/06/04 09:53:20;;;;;;;2.77;2.50;;;22.20;54.90;23.40;101060.00;;;;4990828;28;20184;-45
2022/06/04 09:56:08;;;;;;;2.83;2.63;;;22.20;54.90;23.50;101060.00;;;;4990846;28;20267;-45
2022/06/04 09:58:40;;;;;;;2.67;2.47;;;22.20;54.90;23.40;101057.00;;;;4990310;28;20160;-45
2022/06/04 10:01:15;;;;;;;2.90;2.60;;;22.20;55.40;23.50;101052.00;;;;4993706;28;20436;-44
2022/06/04 10:03:42;;;;;;;2.70;2.50;;;22.20;55.00;23.50;101063.00;;;;4993564;28;20676;-45
2022/06/04 10:06:16;;;;;;;2.90;2.70;;;22.20;55.00;23.50;101053.00;;;;4990671;28;20657;-46
2022/06/04 10:11:57;;;;;;;3.83;2.60;;;22.20;55.00;23.50;101042.00;;;;4976899;28;20211;-45
2022/06/04 10:14:39;;;;;;;2.80;2.60;;;22.30;55.10;23.50;101038.00;;;;4990181;28;20242;-45
2022/06/04 10:17:15;;;;;;;2.90;2.70;;;22.30;55.10;23.50;101042.00;;;;4974116;28;20196;-45
2022/06/04 10:19:50;;;;;;;2.87;2.67;;;22.30;55.10;23.60;101046.00;;;;4975093;28;20199;-45
2022/06/04 10:22:16;;;;;;;2.70;2.50;;;22.30;55.10;23.60;101057.00;;;;4990594;28;20212;-45
2022/06/04 10:24:57;;;;;;;2.63;2.43;;;22.30;55.20;23.60;101044.00;;;;4991165;28;20250;-45
2022/06/04 10:28:08;;;;;;;4.03;2.77;;;22.40;55.30;23.60;101050.00;;;;4973645;28;20227;-44
2022/06/04 10:31:24;;;;;;;3.03;2.70;;;22.40;55.30;23.60;101054.00;;;;4990509;28;20196;-44
2022/06/04 10:34:28;;;;;;;2.77;2.57;;;22.40;55.30;23.70;101057.00;;;;4989846;28;20196;-46
2022/06/04 10:37:28;;;;;;;2.70;2.50;;;22.40;55.40;23.70;101057.00;;;;4975961;28;20191;-45
2022/06/04 10:40:05;;;;;;;2.63;2.47;;;22.40;55.40;23.50;101051.00;;;;4989147;28;20184;-45
2022/06/04 10:42:47;;;;;;;3.27;2.60;;;22.50;55.50;23.70;101058.00;;;;4990505;28;20224;-43
2022/06/04 10:45:43;;;;;;;2.83;2.63;;;22.40;55.50;23.70;101054.00;;;;4974176;28;20589;-45
2022/06/04 10:48:53;;;;;;;3.70;2.70;;;22.50;55.60;23.70;101055.00;;;;4990037;28;20153;-44
2022/06/04 10:51:37;;;;;;;3.30;3.00;;;22.50;55.80;23.70;101060.00;;;;4904054;28;20325;-43
2022/06/04 10:54:35;;;;;;;3.47;2.70;;;22.50;55.80;23.80;101067.00;;;;4989973;28;20250;-45
2022/06/04 10:57:28;;;;;;;8.40;3.00;;;22.50;56.10;23.80;101070.00;;;;4989009;28;20179;-45
2022/06/04 11:00:04;;;;;;;5.33;2.90;;;22.60;56.20;23.80;101034.00;;;;4990546;28;20580;-45
2022/06/04 11:02:39;;;;;;;5.13;3.27;;;22.50;56.20;23.80;101037.00;;;;4973979;28;20239;-45
2022/06/04 11:05:30;;;;;;;4.53;2.90;;;22.60;56.40;23.90;101040.00;;;;4990055;28;20167;-45
2022/06/04 11:08:04;;;;;;;3.70;2.93;;;22.60;56.10;23.90;101034.00;;;;4973610;28;20196;-45
2022/06/04 11:10:37;;;;;;;4.90;3.10;;;22.70;56.20;23.90;101040.00;;;;4988594;28;20176;-45
2022/06/04 11:13:17;;;;;;;5.40;2.90;;;22.70;57.00;23.90;101041.00;;;;4973092;28;20169;-45
2022/06/04 11:15:52;;;;;;;4.87;3.10;;;22.70;56.40;24.00;101038.00;;;;4989779;28;20335;-44
2022/06/04 11:18:22;;;;;;;3.90;3.43;;;22.70;56.50;24.00;101039.00;;;;4971725;28;20684;-45
2022/06/04 11:21:07;;;;;;;3.20;2.90;;;22.70;56.70;24.00;101019.00;;;;4988459;28;20223;-44
2022/06/04 11:24:13;;;;;;;4.47;3.20;;;22.70;56.80;24.00;101037.00;;;;4988658;28;20199;-45
2022/06/04 11:26:52;;;;;;;4.17;3.00;;;22.70;56.80;24.00;101038.00;;;;4992003;28;20188;-44
2022/06/04 11:29:17;;;;;;;3.97;3.20;;;22.70;56.80;24.00;101043.00;;;;4970297;28;20169;-44
2022/06/04 11:32:01;;;;;;;3.43;3.00;;;22.80;56.90;24.10;101036.00;;;;4970394;28;20253;-43